createdAt,value
2017-09-29T00:00:21.290Z,36.90
2017-09-29T00:02:48.805Z,31.40
2017-09-29T00:05:16.298Z,26.60
2017-09-29T00:07:43.809Z,33.47
2017-09-29T00:10:12.070Z,32.93
2017-09-29T00:12:40.354Z,32.47
2017-09-29T00:15:08.618Z,33.50
2017-09-29T00:17:36.110Z,30.37
2017-09-29T00:20:03.621Z,29.97
2017-09-29T00:22:31.126Z,33.73
2017-09-29T00:24:58.642Z,30.10
2017-09-29T00:27:26.143Z,36.27
2017-09-29T00:29:53.658Z,38.33
2017-09-29T00:32:21.158Z,35.43
2017-09-29T00:34:48.703Z,40.17
2017-09-29T00:37:16.202Z,41.17
2017-09-29T00:39:43.706Z,40.70
2017-09-29T00:42:11.229Z,39.10
2017-09-29T00:44:38.718Z,45.93
2017-09-29T00:47:06.242Z,36.93
2017-09-29T00:49:33.743Z,36.63
2017-09-29T00:52:02.026Z,37.20
2017-09-29T00:54:30.328Z,34.07
2017-09-29T00:56:57.823Z,39.07
2017-09-29T00:59:25.338Z,42.20
2017-09-29T01:01:52.829Z,37.37
2017-09-29T01:04:20.354Z,35.57
2017-09-29T01:06:47.851Z,37.47
2017-09-29T01:09:15.343Z,40.60
2017-09-29T01:11:42.857Z,42.03
2017-09-29T01:14:10.350Z,41.43
2017-09-29T01:16:37.868Z,45.03
2017-09-29T01:19:05.361Z,39.07
2017-09-29T01:21:32.875Z,42.37
2017-09-29T01:24:00.486Z,44.00
2017-09-29T01:26:28.002Z,37.23
2017-09-29T01:28:55.502Z,45.50
2017-09-29T01:31:23.761Z,43.23
2017-09-29T01:33:51.274Z,48.93
2017-09-29T01:36:18.766Z,37.23
2017-09-29T01:38:46.297Z,43.77
2017-09-29T01:41:13.837Z,37.87
2017-09-29T01:43:42.112Z,37.23
2017-09-29T01:46:10.381Z,41.03
2017-09-29T01:48:38.662Z,41.97
2017-09-29T01:51:06.918Z,36.97
2017-09-29T01:53:34.410Z,40.80
2017-09-29T01:56:01.933Z,38.63
2017-09-29T01:58:29.426Z,38.77
2017-09-29T02:00:56.970Z,40.50
2017-09-29T02:03:25.232Z,39.43
2017-09-29T02:05:52.745Z,39.20
2017-09-29T02:08:20.234Z,40.67
2017-09-29T02:10:47.726Z,38.20
2017-09-29T02:13:16.006Z,36.90
2017-09-29T02:15:44.265Z,42.60
2017-09-29T02:18:11.783Z,35.03
2017-09-29T02:20:39.278Z,41.40
2017-09-29T02:23:07.567Z,42.37
2017-09-29T02:25:35.830Z,37.97
2017-09-29T02:28:03.330Z,42.33
2017-09-29T02:30:30.846Z,37.00
2017-09-29T02:32:58.347Z,33.73
2017-09-29T02:35:25.873Z,34.47
2017-09-29T02:37:54.129Z,36.10
2017-09-29T02:40:21.646Z,34.77
2017-09-29T02:42:49.138Z,34.60
2017-09-29T02:45:16.654Z,35.87
2017-09-29T02:47:44.150Z,34.80
2017-09-29T02:50:11.664Z,36.97
2017-09-29T02:52:39.181Z,31.37
2017-09-29T02:55:07.442Z,34.73
2017-09-29T02:57:36.845Z,41.87
2017-09-29T03:00:07.753Z,34.83
2017-09-29T03:02:38.623Z,37.77
2017-09-29T03:05:11.486Z,38.50
2017-09-29T03:07:38.998Z,37.53
2017-09-29T03:10:07.258Z,36.23
2017-09-29T03:12:34.777Z,36.73
2017-09-29T03:15:02.279Z,36.27
2017-09-29T03:17:30.545Z,34.90
2017-09-29T03:19:58.063Z,37.27
2017-09-29T03:22:25.564Z,35.97
2017-09-29T03:24:53.119Z,39.20
2017-09-29T03:27:20.622Z,37.07
2017-09-29T03:29:48.146Z,36.63
2017-09-29T03:32:15.647Z,35.17
2017-09-29T03:34:43.145Z,38.43
2017-09-29T03:37:10.662Z,35.80
2017-09-29T03:39:38.164Z,34.43
2017-09-29T03:42:05.681Z,35.27
2017-09-29T03:44:33.173Z,38.57
2017-09-29T03:47:00.685Z,32.03
2017-09-29T03:49:28.173Z,34.80
2017-09-29T03:52:08.966Z,32.70
2017-09-29T03:54:42.989Z,36.03
2017-09-29T03:57:16.079Z,34.40
2017-09-29T03:59:43.595Z,38.93
2017-09-29T04:02:11.094Z,34.73
2017-09-29T04:04:38.610Z,38.10
2017-09-29T04:07:06.110Z,41.40
2017-09-29T04:09:33.623Z,36.97
2017-09-29T04:12:01.121Z,44.23
2017-09-29T04:14:28.642Z,46.57
2017-09-29T04:16:56.140Z,44.63
2017-09-29T04:19:23.666Z,44.90
2017-09-29T04:21:51.180Z,48.30
2017-09-29T04:24:19.446Z,49.10
2017-09-29T04:26:46.967Z,47.53
2017-09-29T04:29:14.466Z,47.83
2017-09-29T04:31:42.775Z,46.20
2017-09-29T04:34:10.283Z,45.13
2017-09-29T04:36:37.818Z,42.57
2017-09-29T04:39:05.314Z,51.37
2017-09-29T04:41:32.846Z,43.10
2017-09-29T04:44:00.346Z,43.87
2017-09-29T04:46:27.849Z,41.60
2017-09-29T04:48:55.362Z,42.73
2017-09-29T04:51:22.859Z,42.30
2017-09-29T04:53:50.378Z,41.03
2017-09-29T04:56:18.641Z,40.00
2017-09-29T04:58:46.154Z,41.37
2017-09-29T05:01:13.652Z,44.20
2017-09-29T05:03:41.170Z,41.27
2017-09-29T05:06:08.670Z,43.33
2017-09-29T05:08:36.163Z,35.87
2017-09-29T05:11:03.685Z,40.93
2017-09-29T05:13:31.178Z,51.40
2017-09-29T05:15:58.703Z,46.30
2017-09-29T05:18:26.194Z,42.13
2017-09-29T05:20:53.710Z,46.80
2017-09-29T05:23:21.210Z,41.57
2017-09-29T05:25:48.710Z,42.97
2017-09-29T05:28:16.230Z,45.00
2017-09-29T05:30:43.730Z,42.47
2017-09-29T05:33:11.246Z,46.40
2017-09-29T05:35:38.738Z,42.93
2017-09-29T05:38:07.022Z,44.30
2017-09-29T05:40:34.517Z,49.23
2017-09-29T05:43:02.798Z,46.70
2017-09-29T05:45:31.062Z,45.60
2017-09-29T05:47:58.553Z,46.13
2017-09-29T05:50:26.069Z,45.00
2017-09-29T05:52:53.562Z,45.07
2017-09-29T05:55:21.077Z,48.17
2017-09-29T05:57:48.569Z,43.67
2017-09-29T06:00:16.853Z,48.67
2017-09-29T06:02:44.350Z,44.73
2017-09-29T06:05:11.881Z,52.73
2017-09-29T06:07:39.378Z,42.60
2017-09-29T06:10:06.874Z,49.30
2017-09-29T06:12:35.157Z,49.90
2017-09-29T06:15:03.444Z,44.60
2017-09-29T06:17:30.967Z,49.03
2017-09-29T06:19:58.481Z,52.70
2017-09-29T06:22:26.018Z,48.53
2017-09-29T06:24:53.519Z,47.07
2017-09-29T06:27:21.034Z,50.90
2017-09-29T06:29:48.530Z,47.17
2017-09-29T06:32:16.021Z,46.70
2017-09-29T06:34:43.558Z,45.23
2017-09-29T06:37:11.049Z,45.87
2017-09-29T06:39:39.330Z,49.77
2017-09-29T06:42:07.586Z,43.90
2017-09-29T06:44:35.106Z,49.73
2017-09-29T06:47:02.594Z,52.30
2017-09-29T06:49:30.081Z,56.50
2017-09-29T06:51:58.358Z,48.40
2017-09-29T06:54:26.626Z,50.07
2017-09-29T06:56:54.910Z,44.10
2017-09-29T06:59:23.174Z,48.50
2017-09-29T07:01:50.686Z,45.07
2017-09-29T07:04:18.173Z,50.00
2017-09-29T07:06:45.686Z,50.07
2017-09-29T07:09:13.181Z,56.90
2017-09-29T07:11:40.669Z,50.60
2017-09-29T07:14:08.257Z,49.33
2017-09-29T07:16:35.774Z,58.23
2017-09-29T07:19:03.298Z,51.73
2017-09-29T07:21:30.802Z,53.20
2017-09-29T07:23:58.326Z,57.80
2017-09-29T07:26:28.955Z,59.13
2017-09-29T07:29:00.983Z,54.17
2017-09-29T07:31:42.706Z,58.20
2017-09-29T07:34:10.230Z,47.00
2017-09-29T07:36:37.726Z,50.87
2017-09-29T07:39:05.222Z,49.50
2017-09-29T07:41:32.743Z,57.57
2017-09-29T07:44:00.238Z,55.93
2017-09-29T07:46:27.770Z,57.20
2017-09-29T07:48:55.263Z,53.23
2017-09-29T07:51:23.542Z,50.90
2017-09-29T07:53:51.802Z,46.47
2017-09-29T07:56:19.333Z,51.60
2017-09-29T07:58:46.863Z,60.77
2017-09-29T08:01:14.357Z,61.37
2017-09-29T08:03:41.874Z,67.27
2017-09-29T08:06:09.369Z,56.87
2017-09-29T08:08:36.882Z,55.00
2017-09-29T08:11:05.142Z,58.03
2017-09-29T08:13:33.431Z,57.13
2017-09-29T08:16:01.701Z,60.17
2017-09-29T08:18:29.957Z,58.90
2017-09-29T08:20:57.485Z,62.47
2017-09-29T08:23:24.978Z,59.43
2017-09-29T08:25:52.490Z,61.07
2017-09-29T08:28:20.137Z,64.57
2017-09-29T08:30:47.649Z,58.90
2017-09-29T08:33:15.141Z,62.00
2017-09-29T08:35:43.408Z,69.27
2017-09-29T08:38:11.696Z,66.93
2017-09-29T08:40:39.186Z,64.83
2017-09-29T08:43:06.701Z,63.23
2017-09-29T08:45:34.957Z,67.93
2017-09-29T08:48:02.469Z,63.10
2017-09-29T08:50:29.962Z,69.07
2017-09-29T08:52:57.454Z,67.53
2017-09-29T08:55:25.734Z,74.63
2017-09-29T08:57:53.990Z,77.90
2017-09-29T09:00:21.511Z,76.40
2017-09-29T09:02:49.005Z,73.87
2017-09-29T09:05:17.286Z,71.67
2017-09-29T09:07:45.546Z,64.07
2017-09-29T09:10:13.810Z,71.20
2017-09-29T09:12:41.321Z,67.57
2017-09-29T09:15:08.811Z,70.63
2017-09-29T09:17:36.329Z,66.70
2017-09-29T09:20:04.586Z,66.97
2017-09-29T09:22:32.862Z,65.90
2017-09-29T09:25:00.382Z,69.47
2017-09-29T09:27:27.898Z,74.37
2017-09-29T09:29:56.158Z,71.47
2017-09-29T09:32:23.652Z,71.37
2017-09-29T09:34:51.169Z,65.13
2017-09-29T09:37:18.661Z,69.23
2017-09-29T09:39:46.172Z,68.60
2017-09-29T09:42:14.435Z,68.37
2017-09-29T09:44:41.950Z,70.60
2017-09-29T09:47:09.437Z,67.40
2017-09-29T09:49:36.926Z,67.77
2017-09-29T09:52:05.214Z,72.13
2017-09-29T09:54:33.474Z,68.87
2017-09-29T09:57:00.986Z,69.20
2017-09-29T09:59:28.477Z,66.37
2017-09-29T10:01:55.993Z,68.60
2017-09-29T10:04:23.481Z,71.53
2017-09-29T10:06:50.974Z,66.30
2017-09-29T10:09:18.486Z,71.73
2017-09-29T10:11:46.000Z,76.33
2017-09-29T10:14:14.278Z,61.10
2017-09-29T10:16:42.537Z,68.13
2017-09-29T10:19:10.049Z,75.70
2017-09-29T10:21:37.540Z,67.87
2017-09-29T10:24:05.037Z,75.03
2017-09-29T10:26:33.317Z,73.63
2017-09-29T10:29:01.583Z,73.00
2017-09-29T10:31:29.862Z,73.10
2017-09-29T10:33:58.121Z,106.13
2017-09-29T10:36:26.406Z,92.67
2017-09-29T10:38:53.906Z,74.13
2017-09-29T10:41:21.397Z,69.23
2017-09-29T10:43:48.910Z,69.87
2017-09-29T10:46:16.397Z,66.97
2017-09-29T10:48:43.913Z,67.00
2017-09-29T10:51:12.170Z,68.47
2017-09-29T10:53:40.474Z,63.57
2017-09-29T10:56:08.730Z,72.23
2017-09-29T10:58:37.010Z,67.57
2017-09-29T11:01:05.269Z,67.53
2017-09-29T11:03:32.761Z,62.70
2017-09-29T11:06:01.042Z,68.67
2017-09-29T11:08:28.533Z,61.87
2017-09-29T11:10:56.046Z,61.97
2017-09-29T11:13:24.301Z,63.87
2017-09-29T11:15:51.813Z,64.97
2017-09-29T11:18:19.301Z,64.07
2017-09-29T11:20:46.793Z,67.20
2017-09-29T11:23:15.086Z,72.23
2017-09-29T11:25:42.577Z,69.53
2017-09-29T11:28:10.093Z,77.77
2017-09-29T11:30:38.349Z,78.20
2017-09-29T11:33:05.866Z,81.40
2017-09-29T11:35:33.354Z,82.57
2017-09-29T11:38:00.846Z,81.33
2017-09-29T11:40:29.127Z,85.60
2017-09-29T11:42:56.621Z,88.53
2017-09-29T11:45:24.903Z,92.27
2017-09-29T11:47:52.397Z,69.83
2017-09-29T11:50:20.677Z,80.93
2017-09-29T11:52:48.934Z,78.60
2017-09-29T11:55:17.195Z,78.43
2017-09-29T11:57:44.705Z,80.70
2017-09-29T12:00:12.217Z,79.33
2017-09-29T12:02:40.521Z,84.20
2017-09-29T12:05:08.782Z,84.27
2017-09-29T12:07:37.797Z,87.43
2017-09-29T12:10:06.059Z,84.73
2017-09-29T12:12:34.349Z,80.50
2017-09-29T12:15:02.650Z,84.03
2017-09-29T12:17:30.141Z,79.37
2017-09-29T12:19:57.653Z,75.13
2017-09-29T12:22:25.918Z,79.80
2017-09-29T12:24:54.198Z,74.10
2017-09-29T12:27:22.457Z,81.10
2017-09-29T12:29:49.974Z,79.03
2017-09-29T12:32:17.466Z,77.97
2017-09-29T12:34:44.958Z,74.13
2017-09-29T12:37:13.234Z,72.77
2017-09-29T12:39:41.494Z,72.93
2017-09-29T12:42:09.772Z,77.27
2017-09-29T12:44:38.033Z,71.57
2017-09-29T12:47:05.550Z,69.83
2017-09-29T12:49:33.036Z,73.00
2017-09-29T12:52:00.525Z,78.53
2017-09-29T12:54:28.801Z,67.07
2017-09-29T12:56:57.068Z,76.07
2017-09-29T12:59:25.353Z,74.93
2017-09-29T13:01:53.609Z,67.10
2017-09-29T13:04:21.125Z,68.93
2017-09-29T13:06:48.617Z,68.63
2017-09-29T13:09:16.110Z,68.67
2017-09-29T13:11:44.389Z,69.50
2017-09-29T13:14:12.660Z,67.43
2017-09-29T13:16:40.938Z,79.47
2017-09-29T13:19:09.195Z,69.43
2017-09-29T13:21:36.709Z,78.03
2017-09-29T13:24:04.201Z,77.90
2017-09-29T13:26:31.718Z,65.20
2017-09-29T13:28:59.212Z,68.13
2017-09-29T13:31:26.701Z,68.17
2017-09-29T13:33:54.981Z,62.40
2017-09-29T13:36:23.234Z,68.60
2017-09-29T13:38:50.745Z,61.87
2017-09-29T13:41:18.238Z,58.27
2017-09-29T13:43:45.762Z,62.73
2017-09-29T13:46:13.261Z,57.97
2017-09-29T13:48:40.785Z,59.87
2017-09-29T13:51:08.276Z,61.30
2017-09-29T13:53:35.764Z,54.90
2017-09-29T13:56:04.041Z,59.00
2017-09-29T13:58:32.297Z,56.90
2017-09-29T14:00:59.824Z,53.40
2017-09-29T14:03:27.321Z,56.60
2017-09-29T14:05:54.845Z,67.00
2017-09-29T14:08:22.346Z,57.20
2017-09-29T14:10:50.601Z,55.70
2017-09-29T14:13:18.118Z,59.53
2017-09-29T14:15:45.621Z,54.10
2017-09-29T14:18:13.137Z,55.23
2017-09-29T14:20:40.628Z,53.60
2017-09-29T14:23:08.137Z,52.73
2017-09-29T14:25:35.634Z,50.80
2017-09-29T14:28:03.126Z,56.93
2017-09-29T14:30:31.401Z,52.87
2017-09-29T14:32:59.657Z,60.30
2017-09-29T14:35:27.227Z,50.47
2017-09-29T14:37:55.498Z,50.90
2017-09-29T14:40:23.014Z,61.07
2017-09-29T14:42:50.513Z,54.47
2017-09-29T14:45:18.038Z,63.47
2017-09-29T14:47:45.529Z,57.97
2017-09-29T14:50:13.022Z,59.03
2017-09-29T14:52:41.296Z,57.80
2017-09-29T14:55:09.559Z,58.40
2017-09-29T14:57:37.832Z,60.67
2017-09-29T15:00:05.326Z,54.90
2017-09-29T15:02:32.841Z,63.10
2017-09-29T15:05:01.097Z,55.47
2017-09-29T15:07:28.614Z,62.70
2017-09-29T15:09:56.106Z,62.10
2017-09-29T15:12:23.597Z,66.90
2017-09-29T15:14:51.113Z,59.67
2017-09-29T15:17:18.605Z,67.23
2017-09-29T15:19:46.122Z,59.07
2017-09-29T15:22:13.609Z,67.60
2017-09-29T15:24:41.122Z,65.67
2017-09-29T15:27:08.623Z,62.93
2017-09-29T15:29:36.132Z,62.00
2017-09-29T15:32:03.625Z,62.23
2017-09-29T15:34:31.118Z,65.43
2017-09-29T15:36:58.630Z,60.20
2017-09-29T15:39:26.121Z,65.07
2017-09-29T15:41:53.633Z,61.87
2017-09-29T15:44:21.126Z,57.43
2017-09-29T15:46:48.639Z,60.70
2017-09-29T15:49:16.133Z,70.40
2017-09-29T15:51:43.621Z,62.23
2017-09-29T15:54:11.135Z,63.27
2017-09-29T15:56:38.626Z,66.63
2017-09-29T15:59:06.138Z,64.43
2017-09-29T16:01:33.657Z,67.67
2017-09-29T16:04:01.170Z,67.97
2017-09-29T16:06:28.662Z,60.20
2017-09-29T16:08:56.181Z,68.27
2017-09-29T16:11:23.673Z,60.50
2017-09-29T16:13:51.161Z,64.93
2017-09-29T16:16:19.437Z,67.50
2017-09-29T16:18:47.693Z,73.50
2017-09-29T16:21:15.209Z,67.40
2017-09-29T16:23:42.701Z,64.20
2017-09-29T16:26:10.228Z,62.60
2017-09-29T16:28:37.729Z,65.53
2017-09-29T16:31:05.241Z,63.83
2017-09-29T16:33:32.733Z,64.30
2017-09-29T16:36:00.222Z,64.00
2017-09-29T16:38:28.500Z,63.60
2017-09-29T16:40:56.757Z,72.47
2017-09-29T16:43:24.269Z,69.70
2017-09-29T16:45:51.762Z,71.90
2017-09-29T16:48:19.274Z,67.90
2017-09-29T16:50:46.768Z,65.27
2017-09-29T16:53:14.265Z,68.97
2017-09-29T16:55:42.542Z,64.47
2017-09-29T16:58:10.797Z,67.10
2017-09-29T17:00:38.315Z,70.00
2017-09-29T17:03:05.805Z,63.77
2017-09-29T17:05:33.317Z,72.53
2017-09-29T17:08:00.810Z,72.77
2017-09-29T17:10:28.306Z,63.00
2017-09-29T17:12:56.589Z,74.20
2017-09-29T17:15:24.850Z,72.10
2017-09-29T17:17:52.361Z,62.87
2017-09-29T17:20:19.858Z,64.93
2017-09-29T17:22:47.373Z,70.97
2017-09-29T17:25:14.865Z,68.97
2017-09-29T17:27:42.357Z,68.17
2017-09-29T17:30:10.632Z,68.77
2017-09-29T17:32:38.889Z,67.93
2017-09-29T17:35:06.403Z,63.10
2017-09-29T17:37:33.892Z,67.50
2017-09-29T17:40:01.407Z,67.90
2017-09-29T17:42:28.901Z,69.70
2017-09-29T17:44:56.394Z,72.83
2017-09-29T17:47:24.674Z,72.83
2017-09-29T17:49:52.929Z,70.40
2017-09-29T17:52:20.441Z,70.57
2017-09-29T17:54:47.933Z,72.30
2017-09-29T17:57:15.445Z,66.77
2017-09-29T17:59:42.941Z,65.70
2017-09-29T18:02:10.517Z,67.47
2017-09-29T18:04:39.562Z,63.93
2017-09-29T18:07:07.053Z,69.13
2017-09-29T18:09:34.565Z,81.27
2017-09-29T18:12:02.825Z,72.03
2017-09-29T18:14:31.221Z,76.93
2017-09-29T18:16:58.714Z,76.63
2017-09-29T18:19:26.201Z,73.30
2017-09-29T18:21:53.714Z,73.27
2017-09-29T18:24:21.205Z,78.13
2017-09-29T18:26:48.727Z,70.40
2017-09-29T18:29:16.223Z,70.83
2017-09-29T18:31:43.749Z,73.90
2017-09-29T18:34:11.241Z,76.60
2017-09-29T18:36:38.753Z,73.27
2017-09-29T18:39:06.246Z,70.30
2017-09-29T18:41:39.622Z,75.37
2017-09-29T18:44:09.801Z,76.40
2017-09-29T18:49:43.831Z,79.53
2017-09-29T18:52:11.346Z,77.70
2017-09-29T18:54:38.854Z,77.83
2017-09-29T18:57:07.114Z,75.73
2017-09-29T18:59:35.398Z,76.97
2017-09-29T19:02:02.891Z,68.73
2017-09-29T19:04:30.409Z,75.63
2017-09-29T19:06:57.902Z,79.97
2017-09-29T19:09:25.435Z,72.67
2017-09-29T19:11:53.693Z,75.17
2017-09-29T19:14:21.185Z,72.90
2017-09-29T19:16:49.465Z,75.60
2017-09-29T19:19:16.961Z,78.37
2017-09-29T19:21:44.477Z,71.13
2017-09-29T19:24:12.733Z,67.60
2017-09-29T19:26:40.246Z,75.00
2017-09-29T19:29:07.734Z,69.30
2017-09-29T19:31:35.246Z,74.63
2017-09-29T19:34:02.737Z,73.90
2017-09-29T19:36:30.230Z,73.47
2017-09-29T19:38:58.515Z,72.13
2017-09-29T19:41:26.776Z,68.53
2017-09-29T19:43:54.301Z,79.70
2017-09-29T19:46:21.789Z,71.83
2017-09-29T19:48:49.314Z,67.13
2017-09-29T19:51:16.809Z,73.57
2017-09-29T19:53:44.308Z,73.80
2017-09-29T19:56:11.817Z,74.63
2017-09-29T19:58:39.306Z,69.87
2017-09-29T20:01:07.589Z,78.50
2017-09-29T20:03:35.082Z,73.53
2017-09-29T20:06:02.598Z,73.00
2017-09-29T20:08:30.853Z,75.77
2017-09-29T20:10:58.374Z,74.63
2017-09-29T20:13:25.869Z,75.70
2017-09-29T20:15:53.361Z,77.17
2017-09-29T20:18:20.869Z,72.30
2017-09-29T20:20:48.361Z,72.67
2017-09-29T20:23:16.645Z,79.10
2017-09-29T20:25:44.145Z,86.50
2017-09-29T20:28:11.658Z,77.13
2017-09-29T20:30:39.946Z,79.53
2017-09-29T20:33:07.472Z,71.03
2017-09-29T20:35:34.981Z,74.20
2017-09-29T20:38:02.469Z,68.80
2017-09-29T20:40:29.983Z,70.20
2017-09-29T20:42:57.478Z,70.53
2017-09-29T20:45:24.989Z,71.97
2017-09-29T20:47:52.481Z,67.57
2017-09-29T20:50:20.001Z,71.60
2017-09-29T20:52:48.262Z,80.57
2017-09-29T20:55:16.567Z,71.83
2017-09-29T20:57:44.102Z,65.83
2017-09-29T21:00:12.382Z,81.67
2017-09-29T21:02:40.666Z,73.73
2017-09-29T21:05:08.927Z,72.17
2017-09-29T21:07:37.225Z,70.60
2017-09-29T21:10:04.726Z,75.97
2017-09-29T21:12:32.221Z,79.40
2017-09-29T21:15:00.534Z,73.27
2017-09-29T21:17:28.028Z,74.23
2017-09-29T21:19:55.537Z,71.47
2017-09-29T21:22:23.039Z,76.67
2017-09-29T21:24:50.561Z,72.77
2017-09-29T21:27:18.059Z,77.53
2017-09-29T21:29:45.549Z,72.93
2017-09-29T21:32:13.838Z,70.40
2017-09-29T21:34:42.097Z,69.17
2017-09-29T21:37:09.611Z,72.83
2017-09-29T21:39:37.106Z,65.83
2017-09-29T21:42:04.620Z,70.67
2017-09-29T21:44:32.125Z,70.30
2017-09-29T21:46:59.617Z,72.67
2017-09-29T21:49:27.133Z,76.10
2017-09-29T21:51:54.629Z,78.93
2017-09-29T21:54:22.146Z,64.80
2017-09-29T21:56:50.401Z,67.67
2017-09-29T21:59:17.918Z,65.87
2017-09-29T22:01:45.411Z,64.20
2017-09-29T22:04:12.897Z,69.27
2017-09-29T22:06:40.411Z,65.73
2017-09-29T22:09:07.905Z,70.10
2017-09-29T22:11:35.429Z,74.97
2017-09-29T22:14:02.921Z,68.43
2017-09-29T22:16:30.433Z,68.73
2017-09-29T22:18:57.945Z,73.17
2017-09-29T22:21:25.463Z,66.00
2017-09-29T22:23:53.026Z,69.37
2017-09-29T22:26:20.525Z,63.37
2017-09-29T22:28:48.042Z,62.13
2017-09-29T22:31:15.537Z,61.27
2017-09-29T22:33:43.050Z,65.87
2017-09-29T22:36:10.550Z,68.63
2017-09-29T22:38:38.313Z,67.73
2017-09-29T22:41:06.570Z,67.63
2017-09-29T22:43:34.061Z,64.50
2017-09-29T22:46:01.575Z,69.83
2017-09-29T22:48:29.068Z,74.07
2017-09-29T22:50:56.582Z,68.27
2017-09-29T22:53:24.072Z,66.93
2017-09-29T22:55:51.585Z,70.23
2017-09-29T22:58:19.085Z,65.37
2017-09-29T23:00:46.573Z,64.47
2017-09-29T23:03:14.853Z,64.93
2017-09-29T23:05:42.355Z,63.13
2017-09-29T23:08:09.874Z,61.80
2017-09-29T23:10:38.134Z,63.80
2017-09-29T23:13:05.649Z,65.97
2017-09-29T23:15:33.137Z,65.20
2017-09-29T23:18:00.629Z,64.87
2017-09-29T23:20:28.906Z,66.73
2017-09-29T23:22:58.000Z,61.40
2017-09-29T23:25:25.525Z,65.37
2017-09-29T23:27:53.024Z,66.73
2017-09-29T23:30:21.305Z,64.10
2017-09-29T23:32:48.810Z,66.30
2017-09-29T23:35:16.311Z,61.00
2017-09-29T23:37:44.589Z,67.60
2017-09-29T23:40:12.854Z,68.20
2017-09-29T23:42:40.373Z,68.23
2017-09-29T23:45:07.870Z,65.30
2017-09-29T23:47:35.389Z,60.23
2017-09-29T23:50:02.882Z,61.97
2017-09-29T23:52:31.137Z,68.83
2017-09-29T23:54:58.650Z,65.73
2017-09-29T23:57:26.141Z,70.37
2017-09-29T23:59:53.657Z,65.43
